createdAt,value
2017-06-29T00:01:34.104Z,34.53
2017-06-29T00:04:01.631Z,33.03
2017-06-29T00:06:29.175Z,34.97
2017-06-29T00:08:56.691Z,34.43
2017-06-29T00:11:24.235Z,32.03
2017-06-29T00:13:51.741Z,33.33
2017-06-29T00:16:19.294Z,33.37
2017-06-29T00:18:46.814Z,29.90
2017-06-29T00:21:14.386Z,31.53
2017-06-29T00:23:41.902Z,32.23
2017-06-29T00:26:09.414Z,32.53
2017-06-29T00:28:36.965Z,29.93
2017-06-29T00:31:04.770Z,31.37
2017-06-29T00:33:32.421Z,29.27
2017-06-29T00:35:59.939Z,31.00
2017-06-29T00:38:27.484Z,32.70
2017-06-29T00:40:55.031Z,30.50
2017-06-29T00:43:22.582Z,31.80
2017-06-29T00:45:50.098Z,29.37
2017-06-29T00:48:17.677Z,31.97
2017-06-29T00:50:45.235Z,31.23
2017-06-29T00:53:12.751Z,33.70
2017-06-29T00:55:40.572Z,30.67
2017-06-29T00:58:08.253Z,30.67
2017-06-29T01:00:35.812Z,32.70
2017-06-29T01:03:03.331Z,32.87
2017-06-29T01:05:30.842Z,32.83
2017-06-29T01:07:58.375Z,33.10
2017-06-29T01:10:25.886Z,32.93
2017-06-29T01:12:54.200Z,35.60
2017-06-29T01:15:21.727Z,30.83
2017-06-29T01:17:49.270Z,32.27
2017-06-29T01:20:16.791Z,30.20
2017-06-29T01:22:44.346Z,31.30
2017-06-29T01:25:11.892Z,31.07
2017-06-29T01:27:39.408Z,27.10
2017-06-29T01:30:06.951Z,31.27
2017-06-29T01:32:34.470Z,33.30
2017-06-29T01:35:02.045Z,34.20
2017-06-29T01:37:29.556Z,36.80
2017-06-29T01:39:57.844Z,32.57
2017-06-29T01:42:25.386Z,32.63
2017-06-29T01:44:52.898Z,32.93
2017-06-29T01:47:20.768Z,35.97
2017-06-29T01:49:48.281Z,36.40
2017-06-29T01:52:15.842Z,37.20
2017-06-29T01:54:43.404Z,34.43
2017-06-29T01:57:10.924Z,34.70
2017-06-29T01:59:38.469Z,33.53
2017-06-29T02:02:05.988Z,31.70
2017-06-29T02:04:33.551Z,28.20
2017-06-29T02:07:01.072Z,23.97
2017-06-29T02:09:28.618Z,36.27
2017-06-29T02:11:56.137Z,32.67
2017-06-29T02:14:23.657Z,30.07
2017-06-29T02:16:51.211Z,31.53
2017-06-29T02:19:19.482Z,35.73
2017-06-29T02:21:47.320Z,37.07
2017-06-29T02:24:14.839Z,32.10
2017-06-29T02:26:42.351Z,30.40
2017-06-29T02:29:09.915Z,32.00
2017-06-29T02:31:37.443Z,35.83
2017-06-29T02:34:04.997Z,30.10
2017-06-29T02:36:32.516Z,32.60
2017-06-29T02:39:00.059Z,32.07
2017-06-29T02:41:27.611Z,33.10
2017-06-29T02:43:55.127Z,31.60
2017-06-29T02:46:22.675Z,32.47
2017-06-29T02:48:50.186Z,32.07
2017-06-29T02:51:17.720Z,35.03
2017-06-29T02:53:45.225Z,31.27
2017-06-29T02:56:12.768Z,34.37
2017-06-29T02:58:40.312Z,34.30
2017-06-29T03:01:07.823Z,34.93
2017-06-29T03:03:35.375Z,34.63
2017-06-29T03:06:03.050Z,35.27
2017-06-29T03:08:30.558Z,37.63
2017-06-29T03:10:58.094Z,31.07
2017-06-29T03:13:25.599Z,28.10
2017-06-29T03:15:53.148Z,37.27
2017-06-29T03:18:20.668Z,29.13
2017-06-29T03:20:48.211Z,36.30
2017-06-29T03:23:15.729Z,38.40
2017-06-29T03:25:43.293Z,35.83
2017-06-29T03:28:10.830Z,36.37
2017-06-29T03:30:38.382Z,38.77
2017-06-29T03:33:05.899Z,39.97
2017-06-29T03:35:33.447Z,38.30
2017-06-29T03:38:01.007Z,43.10
2017-06-29T03:40:28.608Z,41.50
2017-06-29T03:42:56.125Z,45.10
2017-06-29T03:45:24.450Z,40.80
2017-06-29T03:47:52.020Z,33.00
2017-06-29T03:50:19.541Z,46.97
2017-06-29T03:52:47.096Z,44.30
2017-06-29T03:55:14.904Z,40.93
2017-06-29T03:57:42.449Z,45.33
2017-06-29T04:00:10.232Z,45.90
2017-06-29T04:02:37.804Z,47.80
2017-06-29T04:05:05.340Z,50.07
2017-06-29T04:07:32.887Z,47.30
2017-06-29T04:10:00.416Z,45.47
2017-06-29T04:12:27.984Z,45.23
2017-06-29T04:14:55.509Z,36.50
2017-06-29T04:17:23.036Z,47.60
2017-06-29T04:19:50.588Z,46.00
2017-06-29T04:22:18.112Z,42.73
2017-06-29T04:24:46.430Z,36.97
2017-06-29T04:27:13.960Z,35.70
2017-06-29T04:29:41.496Z,43.77
2017-06-29T04:32:09.056Z,39.17
2017-06-29T04:34:36.580Z,34.43
2017-06-29T04:37:04.121Z,37.83
2017-06-29T04:39:31.679Z,38.60
2017-06-29T04:41:59.244Z,38.60
2017-06-29T04:44:26.766Z,29.33
2017-06-29T04:46:54.344Z,43.23
2017-06-29T04:49:21.860Z,41.60
2017-06-29T04:51:49.426Z,42.33
2017-06-29T04:54:16.971Z,43.97
2017-06-29T04:56:44.487Z,48.90
2017-06-29T04:59:12.302Z,43.27
2017-06-29T05:01:40.062Z,50.90
2017-06-29T05:04:07.622Z,37.10
2017-06-29T05:06:35.127Z,50.30
2017-06-29T05:09:02.679Z,51.30
2017-06-29T05:11:30.204Z,52.13
2017-06-29T05:13:57.755Z,50.23
2017-06-29T05:16:25.275Z,47.67
2017-06-29T05:18:53.168Z,49.60
2017-06-29T05:21:20.685Z,44.60
2017-06-29T05:23:48.197Z,46.13
2017-06-29T05:26:15.742Z,48.67
2017-06-29T05:28:43.249Z,47.53
2017-06-29T05:31:10.849Z,49.47
2017-06-29T05:33:38.623Z,49.93
2017-06-29T05:36:06.161Z,45.53
2017-06-29T05:38:33.724Z,44.57
2017-06-29T05:41:01.513Z,42.50
2017-06-29T05:43:29.168Z,36.13
2017-06-29T05:45:56.685Z,30.77
2017-06-29T05:48:24.998Z,35.63
2017-06-29T05:50:52.514Z,35.57
2017-06-29T05:53:20.838Z,35.80
2017-06-29T05:55:48.480Z,34.27
2017-06-29T05:58:16.091Z,29.67
2017-06-29T06:00:43.614Z,28.33
2017-06-29T06:03:11.169Z,31.00
2017-06-29T06:05:38.670Z,31.47
2017-06-29T06:08:06.195Z,28.07
2017-06-29T06:10:33.745Z,26.40
2017-06-29T06:13:01.254Z,32.90
2017-06-29T06:15:28.874Z,30.60
2017-06-29T06:17:56.652Z,32.30
2017-06-29T06:20:24.438Z,29.20
2017-06-29T06:22:52.848Z,27.80
2017-06-29T06:25:22.509Z,23.73
2017-06-29T06:27:50.298Z,27.47
2017-06-29T06:30:17.903Z,24.80
2017-06-29T06:32:45.487Z,25.80
2017-06-29T06:35:13.008Z,24.77
2017-06-29T06:37:40.646Z,22.83
2017-06-29T06:40:08.231Z,21.77
2017-06-29T06:42:35.743Z,19.07
2017-06-29T06:45:03.338Z,20.77
2017-06-29T06:47:31.660Z,18.40
2017-06-29T06:49:59.197Z,20.20
2017-06-29T06:52:26.997Z,20.20
2017-06-29T06:54:54.564Z,17.20
2017-06-29T06:57:22.084Z,18.10
2017-06-29T06:59:49.614Z,16.30
2017-06-29T07:02:18.040Z,17.57
2017-06-29T07:04:45.563Z,18.40
2017-06-29T07:07:13.247Z,20.33
2017-06-29T07:09:40.859Z,20.13
2017-06-29T07:12:08.524Z,18.43
2017-06-29T07:14:36.145Z,17.80
2017-06-29T07:17:03.811Z,20.07
2017-06-29T07:19:31.455Z,21.93
2017-06-29T07:21:59.112Z,22.57
2017-06-29T07:24:26.698Z,21.63
2017-06-29T07:26:54.395Z,17.57
2017-06-29T07:29:22.028Z,21.00
2017-06-29T07:31:49.606Z,20.33
2017-06-29T07:34:17.240Z,23.90
2017-06-29T07:36:44.752Z,23.50
2017-06-29T07:39:13.290Z,22.47
2017-06-29T07:41:40.838Z,22.30
2017-06-29T07:44:08.403Z,23.53
2017-06-29T07:46:35.967Z,21.53
2017-06-29T07:49:03.484Z,20.37
2017-06-29T07:51:31.052Z,22.07
2017-06-29T07:53:58.843Z,22.63
2017-06-29T07:56:26.358Z,22.63
2017-06-29T07:58:54.667Z,20.50
2017-06-29T08:01:22.233Z,20.70
2017-06-29T08:03:49.751Z,23.13
2017-06-29T08:06:17.258Z,24.27
2017-06-29T08:08:44.811Z,22.67
2017-06-29T08:11:12.595Z,23.57
2017-06-29T08:13:40.124Z,21.87
2017-06-29T08:16:07.646Z,24.63
2017-06-29T08:18:35.209Z,22.70
2017-06-29T08:21:02.747Z,25.10
2017-06-29T08:23:30.265Z,25.67
2017-06-29T08:25:57.833Z,25.03
2017-06-29T08:28:25.443Z,22.67
2017-06-29T08:30:52.960Z,22.67
2017-06-29T08:33:20.519Z,24.27
2017-06-29T08:35:48.119Z,25.17
2017-06-29T08:38:15.739Z,23.57
2017-06-29T08:40:43.244Z,25.73
2017-06-29T08:43:10.843Z,24.90
2017-06-29T08:45:38.402Z,22.70
2017-06-29T08:48:05.943Z,25.37
2017-06-29T08:50:33.551Z,23.60
2017-06-29T08:53:01.072Z,22.23
2017-06-29T08:55:28.639Z,23.37
2017-06-29T08:57:56.435Z,26.67
2017-06-29T09:00:23.996Z,26.37
2017-06-29T09:02:51.514Z,26.70
2017-06-29T09:05:19.030Z,24.90
2017-06-29T09:07:46.610Z,26.10
2017-06-29T09:10:14.161Z,27.27
2017-06-29T09:12:42.467Z,24.90
2017-06-29T09:15:10.774Z,27.80
2017-06-29T09:17:38.288Z,32.37
2017-06-29T09:20:06.676Z,30.73
2017-06-29T09:22:34.972Z,29.77
2017-06-29T09:25:02.491Z,32.73
2017-06-29T09:27:30.171Z,35.20
2017-06-29T09:29:57.715Z,36.10
2017-06-29T09:32:25.321Z,32.63
2017-06-29T09:34:52.955Z,36.20
2017-06-29T09:37:21.386Z,33.37
2017-06-29T09:39:49.110Z,35.90
2017-06-29T09:42:16.652Z,37.30
2017-06-29T09:44:44.243Z,28.43
2017-06-29T09:47:11.792Z,26.43
2017-06-29T09:49:39.355Z,25.63
2017-06-29T09:52:06.889Z,28.80
2017-06-29T09:54:34.423Z,30.40
2017-06-29T09:57:02.011Z,24.73
2017-06-29T09:59:29.564Z,26.70
2017-06-29T10:01:57.883Z,26.60
2017-06-29T10:04:25.478Z,27.00
2017-06-29T10:06:53.023Z,28.63
2017-06-29T10:09:20.542Z,27.80
2017-06-29T10:11:48.106Z,30.30
2017-06-29T10:14:15.635Z,24.87
2017-06-29T10:16:43.172Z,25.90
2017-06-29T10:19:10.778Z,23.80
2017-06-29T10:21:38.311Z,30.57
2017-06-29T10:24:05.836Z,28.90
2017-06-29T10:26:33.389Z,27.10
2017-06-29T10:29:01.003Z,29.87
2017-06-29T10:31:29.294Z,30.77
2017-06-29T10:33:57.574Z,31.40
2017-06-29T10:36:25.983Z,37.97
2017-06-29T10:38:53.762Z,32.80
2017-06-29T10:41:21.412Z,31.90
2017-06-29T10:43:48.995Z,35.53
2017-06-29T10:46:16.506Z,28.90
2017-06-29T10:48:44.158Z,31.27
2017-06-29T10:51:11.676Z,30.20
2017-06-29T10:53:39.262Z,34.87
2017-06-29T10:56:07.611Z,35.90
2017-06-29T10:58:35.120Z,33.67
2017-06-29T11:01:02.762Z,36.37
2017-06-29T11:03:31.079Z,37.67
2017-06-29T11:05:58.755Z,39.00
2017-06-29T11:08:26.276Z,41.03
2017-06-29T11:10:54.567Z,36.13
2017-06-29T11:13:22.714Z,41.00
2017-06-29T11:15:50.262Z,38.07
2017-06-29T11:18:17.782Z,36.87
2017-06-29T11:20:45.337Z,40.20
2017-06-29T11:23:12.853Z,37.90
2017-06-29T11:25:40.425Z,39.67
2017-06-29T11:28:07.950Z,35.13
2017-06-29T11:30:35.453Z,33.13
2017-06-29T11:33:03.031Z,34.77
2017-06-29T11:35:30.553Z,32.50
2017-06-29T11:37:58.195Z,37.27
2017-06-29T11:40:25.713Z,36.00
2017-06-29T11:42:53.273Z,35.10
2017-06-29T11:45:20.786Z,30.60
2017-06-29T11:47:48.437Z,27.13
2017-06-29T11:50:15.971Z,24.77
2017-06-29T11:52:43.546Z,22.60
2017-06-29T11:55:11.120Z,22.07
2017-06-29T11:57:38.713Z,22.70
2017-06-29T12:00:06.223Z,22.73
2017-06-29T12:02:33.763Z,23.47
2017-06-29T12:05:01.320Z,16.17
2017-06-29T12:07:29.194Z,11.70
2017-06-29T12:09:56.713Z,11.80
2017-06-29T12:12:24.275Z,13.03
2017-06-29T12:14:51.818Z,12.77
2017-06-29T12:17:19.335Z,13.80
2017-06-29T12:19:46.902Z,14.50
2017-06-29T12:22:14.420Z,15.50
2017-06-29T12:24:41.997Z,14.80
2017-06-29T12:27:09.564Z,16.30
2017-06-29T12:29:37.125Z,15.60
2017-06-29T12:32:04.648Z,15.43
2017-06-29T12:34:32.154Z,15.17
2017-06-29T12:36:59.698Z,17.93
2017-06-29T12:39:27.483Z,15.27
2017-06-29T12:41:55.041Z,19.20
2017-06-29T12:44:22.572Z,17.43
2017-06-29T12:46:50.428Z,15.90
2017-06-29T12:49:17.957Z,16.10
2017-06-29T12:51:45.782Z,20.40
2017-06-29T12:54:13.341Z,16.97
2017-06-29T12:56:40.870Z,15.87
2017-06-29T12:59:08.434Z,15.07
2017-06-29T13:01:35.957Z,14.60
2017-06-29T13:04:03.524Z,14.83
2017-06-29T13:06:31.816Z,14.43
2017-06-29T13:08:59.376Z,11.27
2017-06-29T13:11:26.931Z,11.23
2017-06-29T13:13:55.211Z,9.63
2017-06-29T13:16:22.805Z,7.00
2017-06-29T13:18:51.276Z,8.50
2017-06-29T13:21:18.835Z,8.43
2017-06-29T13:23:46.350Z,8.10
2017-06-29T13:26:13.904Z,7.57
2017-06-29T13:28:41.423Z,7.07
2017-06-29T13:31:08.977Z,8.30
2017-06-29T13:33:36.650Z,7.57
2017-06-29T13:36:04.149Z,6.83
2017-06-29T13:38:33.311Z,7.90
2017-06-29T13:41:01.015Z,6.43
2017-06-29T13:43:29.287Z,8.13
2017-06-29T13:45:56.805Z,7.13
2017-06-29T13:48:24.395Z,7.80
2017-06-29T13:50:51.918Z,7.80
2017-06-29T13:53:19.484Z,8.80
2017-06-29T13:55:47.001Z,8.13
2017-06-29T13:58:15.341Z,5.83
2017-06-29T14:00:42.854Z,6.63
2017-06-29T14:03:10.406Z,7.03
2017-06-29T14:05:37.953Z,7.50
2017-06-29T14:08:06.255Z,7.13
2017-06-29T14:10:34.032Z,6.20
2017-06-29T14:13:01.577Z,6.43
2017-06-29T14:15:29.097Z,5.93
2017-06-29T14:17:57.600Z,6.70
2017-06-29T14:20:25.600Z,5.43
2017-06-29T14:22:53.249Z,6.57
2017-06-29T14:25:20.822Z,6.97
2017-06-29T14:27:48.536Z,6.70
2017-06-29T14:30:16.050Z,5.80
2017-06-29T14:32:43.735Z,4.47
2017-06-29T14:35:11.280Z,4.87
2017-06-29T14:37:38.912Z,6.20
2017-06-29T14:40:06.470Z,5.10
2017-06-29T14:42:34.053Z,4.50
2017-06-29T14:45:01.617Z,5.03
2017-06-29T14:47:29.286Z,4.70
2017-06-29T14:49:56.843Z,7.33
2017-06-29T14:52:24.372Z,7.50
2017-06-29T14:54:51.919Z,7.00
2017-06-29T14:57:19.480Z,7.70
2017-06-29T14:59:46.989Z,7.30
2017-06-29T15:02:14.517Z,7.87
2017-06-29T15:04:42.049Z,7.70
2017-06-29T15:07:09.652Z,9.30
2017-06-29T15:09:37.240Z,7.10
2017-06-29T15:12:04.750Z,7.67
2017-06-29T15:14:32.249Z,8.03
2017-06-29T15:16:59.815Z,8.03
2017-06-29T15:19:27.332Z,8.60
2017-06-29T15:21:54.861Z,9.57
2017-06-29T15:24:22.419Z,8.80
2017-06-29T15:26:49.987Z,9.10
2017-06-29T15:29:17.511Z,9.00
2017-06-29T15:31:45.053Z,9.03
2017-06-29T15:34:12.575Z,6.53
2017-06-29T15:36:40.895Z,6.13
2017-06-29T15:39:08.447Z,7.30
2017-06-29T15:41:36.002Z,8.37
2017-06-29T15:44:03.557Z,9.57
2017-06-29T15:46:31.360Z,9.50
2017-06-29T15:48:58.867Z,10.00
2017-06-29T15:51:26.448Z,9.17
2017-06-29T15:53:54.047Z,10.13
2017-06-29T15:56:21.584Z,8.63
2017-06-29T15:58:49.097Z,8.83
2017-06-29T16:01:16.635Z,8.53
2017-06-29T16:03:44.915Z,8.30
2017-06-29T16:06:13.223Z,8.37
2017-06-29T16:08:40.733Z,9.03
2017-06-29T16:11:08.265Z,8.23
2017-06-29T16:13:35.770Z,8.33
2017-06-29T16:16:03.594Z,8.30
2017-06-29T16:18:31.111Z,8.17
2017-06-29T16:20:58.670Z,8.10
2017-06-29T16:23:26.261Z,8.97
2017-06-29T16:25:53.776Z,6.60
2017-06-29T16:28:21.326Z,7.00
2017-06-29T16:30:48.879Z,6.57
2017-06-29T16:33:16.434Z,7.10
2017-06-29T16:35:43.938Z,6.80
2017-06-29T16:38:11.476Z,7.20
2017-06-29T16:40:39.090Z,9.77
2017-06-29T16:43:06.601Z,8.50
2017-06-29T16:45:34.111Z,7.60
2017-06-29T16:48:01.664Z,9.83
2017-06-29T16:50:29.169Z,7.97
2017-06-29T16:52:57.466Z,7.40
2017-06-29T16:55:24.997Z,8.20
2017-06-29T16:57:52.535Z,8.70
2017-06-29T17:00:20.074Z,9.50
2017-06-29T17:02:47.610Z,9.30
2017-06-29T17:05:15.164Z,10.20
2017-06-29T17:07:42.711Z,8.97
2017-06-29T17:10:10.262Z,10.10
2017-06-29T17:12:38.572Z,8.40
2017-06-29T17:15:06.096Z,7.90
2017-06-29T17:17:33.638Z,7.07
2017-06-29T17:20:01.180Z,6.80
2017-06-29T17:22:28.688Z,7.83
2017-06-29T17:24:56.240Z,10.60
2017-06-29T17:27:23.752Z,7.80
2017-06-29T17:29:51.300Z,7.30
2017-06-29T17:32:18.820Z,6.17
2017-06-29T17:34:46.367Z,7.73
2017-06-29T17:37:13.896Z,7.37
2017-06-29T17:39:41.459Z,7.10
2017-06-29T17:42:09.014Z,8.73
2017-06-29T17:44:36.571Z,7.73
2017-06-29T17:47:04.087Z,9.50
2017-06-29T17:49:31.610Z,9.00
2017-06-29T17:51:59.175Z,9.83
2017-06-29T17:54:26.687Z,8.30
2017-06-29T17:56:54.322Z,10.03
2017-06-29T17:59:22.134Z,9.77
2017-06-29T18:01:49.680Z,9.13
2017-06-29T18:04:17.194Z,4.50
2017-06-29T18:06:45.499Z,4.47
2017-06-29T18:09:13.011Z,4.47
2017-06-29T18:11:40.569Z,4.90
2017-06-29T18:14:08.076Z,5.80
2017-06-29T18:16:35.611Z,5.87
2017-06-29T18:19:03.887Z,6.00
2017-06-29T18:21:31.444Z,9.80
2017-06-29T18:23:59.782Z,7.33
2017-06-29T18:26:27.275Z,8.00
2017-06-29T18:28:54.824Z,7.63
2017-06-29T18:31:22.340Z,7.60
2017-06-29T18:33:49.887Z,7.03
2017-06-29T18:36:17.412Z,9.10
2017-06-29T18:38:45.024Z,7.53
2017-06-29T18:41:12.587Z,7.60
2017-06-29T18:43:40.118Z,8.80
2017-06-29T18:46:07.639Z,8.30
2017-06-29T18:48:35.214Z,9.03
2017-06-29T18:51:03.504Z,8.40
2017-06-29T18:53:31.817Z,8.37
2017-06-29T18:55:59.378Z,7.60
2017-06-29T18:58:26.937Z,9.27
2017-06-29T19:00:54.458Z,6.47
2017-06-29T19:03:22.012Z,6.47
2017-06-29T19:05:50.301Z,6.00
2017-06-29T19:08:18.112Z,5.63
2017-06-29T19:10:45.629Z,5.80
2017-06-29T19:13:13.183Z,6.93
2017-06-29T19:15:41.515Z,5.53
2017-06-29T19:18:09.030Z,6.57
2017-06-29T19:20:36.551Z,6.47
2017-06-29T19:23:04.078Z,5.73
2017-06-29T19:25:31.752Z,6.30
2017-06-29T19:27:59.279Z,6.63
2017-06-29T19:30:26.855Z,9.00
2017-06-29T19:32:54.364Z,5.63
2017-06-29T19:35:22.651Z,8.43
2017-06-29T19:37:50.970Z,5.97
2017-06-29T19:40:18.632Z,6.27
2017-06-29T19:42:46.168Z,6.27
2017-06-29T19:45:13.712Z,7.10
2017-06-29T19:47:41.249Z,7.10
2017-06-29T19:50:08.763Z,8.37
2017-06-29T19:52:36.311Z,9.73
2017-06-29T19:55:03.835Z,9.37
2017-06-29T19:57:31.387Z,9.67
2017-06-29T19:59:58.905Z,11.70
2017-06-29T20:02:26.468Z,14.53
2017-06-29T20:04:53.987Z,13.13
2017-06-29T20:07:22.266Z,15.27
2017-06-29T20:09:51.031Z,12.50
2017-06-29T20:12:18.535Z,11.63
2017-06-29T20:14:46.089Z,12.67
2017-06-29T20:17:13.607Z,11.33
2017-06-29T20:19:41.156Z,14.40
2017-06-29T20:22:08.663Z,8.50
2017-06-29T20:24:36.231Z,8.77
2017-06-29T20:27:03.781Z,11.30
2017-06-29T20:29:31.300Z,42.17
2017-06-29T20:31:58.958Z,34.57
2017-06-29T20:34:26.471Z,16.23
2017-06-29T20:36:54.014Z,9.80
2017-06-29T20:39:21.543Z,12.80
2017-06-29T20:41:49.115Z,9.23
2017-06-29T20:44:17.412Z,10.60
2017-06-29T20:46:45.103Z,11.30
2017-06-29T20:49:12.747Z,9.57
2017-06-29T20:51:40.273Z,10.40
2017-06-29T20:54:07.814Z,10.03
2017-06-29T20:56:35.358Z,10.77
2017-06-29T20:59:02.915Z,14.50
2017-06-29T21:01:30.476Z,14.10
2017-06-29T21:03:58.248Z,12.90
2017-06-29T21:06:25.778Z,13.70
2017-06-29T21:08:53.378Z,14.30
2017-06-29T21:11:20.873Z,13.70
2017-06-29T21:13:48.446Z,12.03
2017-06-29T21:16:15.952Z,12.00
2017-06-29T21:18:43.503Z,12.83
2017-06-29T21:21:11.066Z,11.53
2017-06-29T21:23:38.581Z,13.30
2017-06-29T21:26:06.385Z,11.50
2017-06-29T21:28:33.945Z,11.53
2017-06-29T21:31:01.513Z,16.20
2017-06-29T21:33:29.028Z,13.70
2017-06-29T21:35:56.587Z,13.40
2017-06-29T21:38:24.147Z,13.10
2017-06-29T21:40:51.926Z,14.73
2017-06-29T21:43:19.447Z,15.33
2017-06-29T21:45:47.769Z,15.00
2017-06-29T21:48:15.454Z,15.07
2017-06-29T21:50:43.003Z,13.17
2017-06-29T21:53:10.519Z,12.90
2017-06-29T21:55:38.064Z,11.10
2017-06-29T21:58:06.358Z,12.47
2017-06-29T22:00:33.924Z,11.33
2017-06-29T22:03:01.453Z,10.03
2017-06-29T22:05:28.987Z,10.70
2017-06-29T22:07:56.525Z,10.83
2017-06-29T22:10:24.045Z,10.70
2017-06-29T22:12:51.608Z,9.87
2017-06-29T22:15:19.117Z,11.50
2017-06-29T22:17:46.636Z,11.67
2017-06-29T22:20:14.175Z,9.20
2017-06-29T22:22:41.678Z,8.80
2017-06-29T22:25:09.216Z,8.67
2017-06-29T22:27:36.726Z,6.50
2017-06-29T22:30:04.260Z,5.63
2017-06-29T22:32:31.769Z,5.90
2017-06-29T22:35:00.412Z,5.40
2017-06-29T22:37:27.928Z,6.13
2017-06-29T22:39:55.473Z,5.10
2017-06-29T22:42:23.751Z,5.43
2017-06-29T22:44:52.078Z,5.40
2017-06-29T22:47:19.587Z,3.20
2017-06-29T22:49:47.884Z,4.80
2017-06-29T22:52:15.431Z,4.40
2017-06-29T22:54:43.710Z,4.60
2017-06-29T22:57:12.009Z,4.30
2017-06-29T22:59:39.531Z,4.10
2017-06-29T23:02:07.087Z,3.00
2017-06-29T23:04:34.598Z,2.87
2017-06-29T23:07:02.138Z,3.27
2017-06-29T23:09:29.683Z,3.17
2017-06-29T23:11:58.214Z,2.17
2017-06-29T23:14:25.767Z,2.63
2017-06-29T23:16:53.278Z,2.43
2017-06-29T23:19:21.599Z,2.20
2017-06-29T23:21:49.131Z,2.47
2017-06-29T23:24:16.638Z,2.50
2017-06-29T23:26:44.171Z,1.67
2017-06-29T23:29:11.683Z,1.50
2017-06-29T23:31:39.232Z,1.33
2017-06-29T23:34:06.770Z,1.67
2017-06-29T23:36:34.287Z,2.00
2017-06-29T23:39:01.872Z,1.60
2017-06-29T23:41:29.385Z,2.00
2017-06-29T23:43:57.667Z,1.20
2017-06-29T23:46:25.217Z,1.07
2017-06-29T23:48:53.538Z,1.50
2017-06-29T23:51:21.042Z,1.50
2017-06-29T23:53:48.556Z,1.13
2017-06-29T23:56:16.096Z,1.17
2017-06-29T23:58:43.900Z,1.03
